aviador You're here:

KARA Decoded Metar

LOUISIANA in LA, USA
Report Time2018-06-24 08:53:00
UTC Time2018-06-24 09:18:42
Flight Rules vfr VFR
Wind210° at 04 kt
W.Decomp.*RWY 16: 2.7 kt HW 2.9 kt RCW
W.Rank210° ranks 23
Current wind is below 210° avg. (7.5)
Visibility9999 m
Phenomena:N/A
Clouds:Few 022 Hf
Scattered 048 Hf
Expected CloudBase > 1,200 ft AGL from Temp-Dew spread
CeilingNone
Temp27°C (ISA +12)
Dew Point24°C (84% RH)
Heat Index30.1°C
QNH1014 hPa
Density Alt1,814 ft
Elevation59 ft
Report Wrong Elevation
Raw Report
KARA 240853Z AUTO 21004KT 10SM FEW022 SCT048 27/24 A2995 RMK AO2
SLP140 T02670244 53007 $=

Extra information for KARA:More info

Metar Taf Metar & Taf Last 4 Metars F.Rules Stats Wind Profile Meteogram Temp Stats Airport Information Weather charts Add Link Nearby VenuesMetar ALERT Operation Metar Decoded Social comments

AIRNAV info for KARA